Flugplatz Stuttgart

Bericht für EDDS

vom 24.02. um 01:20 UTC

Wind 9 kt aus 60°

Sichtweite 10 km oder mehr

aufgebrochene Bewölkung in 2600 ft

Temperatur -2.0°C

Taupunkt -6.0°C

Luftfeuchtigkeit 74%

Luftdruck 1015 hPa

EDDS 240120Z 06009KT 9999 BKN026 M02/M06 Q1015

Prognose für EDDS

vom 23.02. um 23:00 UTC

Zwischen 00:00 UTC und 08:00 UTC

Wind 10 kt aus 50°

Sichtweite 10 km oder mehr

aufgebrochene Bewölkung in 3000 ft


Zwischen 08:00 und 11:00 UTC übergehend zu

Wind 15 kt aus 60° in Böen 25 kt

Sichtweite 10 km oder mehr

aufgebrochene Bewölkung in 3000 ft

TAF EDDS 232300Z 2400/2424 05010KT 9999 BKN030 BECMG 2408/2411 06015G25KT
Impressum